LIBN

Lecce Galatina Air Base Airport

Italy
TAF LIBN 171100Z 1712/1721 15012KT 9999 SCT040 TEMPO 1712/1716 5000 RA SCT015 BKN020 BECMG 1714/1716 20010KT
Issued Valid From Valid To
Dec-17 @ 11:00 UTC
(2 hours ago)
Dec-17 @ 12:00 UTC
(an hour ago)
Dec-17 @ 21:00 UTC
(in 8 hours)
Dec-17 @ 12:00 to Dec-17 @ 14:00
TAF LIBN 171100Z 1712/1721 15012KT 9999 SCT040
Wind Visibility Clouds
150° at 12 knots 10,000+ meters
  • Scattered at 4,000' AGL
Temporary Dec-17 @ 12:00 to Dec-17 @ 16:00
TEMPO 1712/1716 5000 RA SCT015 BKN020
Visibility Clouds Conditions
5,005 meters
  • Scattered at 1,500' AGL
  • Broken at 2,000' AGL
  • Rain
Becoming Dec-17 @ 14:00 to Dec-17 @ 21:00
BECMG 1714/1716 20010KT
Wind Visibility Clouds
200° at 10 knots 10,000+ meters
  • Scattered at 4,000' AGL
TAF LIBN 171100Z 1712/1721 15012KT 9999 SCT040 TEMPO 1712/1716 5000 RA SCT015 BKN020 BECMG 1714/1716 20010KT
Issued Dec-17 @ 11:00 UTC
(2 hours ago)
Valid From Dec-17 @ 12:00 UTC
(an hour ago)
Valid To Dec-17 @ 21:00 UTC
(in 8 hours)
Dec-17 @ 12:00 - Dec-17 @ 14:00
Wind Visibility
150° at 12 knots 10,000+ meters
Clouds
  • Scattered at 4,000' AGL
Temporary Dec-17 @ 12:00 - Dec-17 @ 16:00
Clouds
  • Scattered at 1,500' AGL
  • Broken at 2,000' AGL
Conditions
  • Rain
Becoming Dec-17 @ 14:00 - Dec-17 @ 21:00
Wind Visibility
200° at 10 knots 10,000+ meters
Clouds
  • Scattered at 4,000' AGL